Time;durP1;ratioP1;P1;durP2;ratioP2;P2;SDS_P1;SDS_P2;PMS_P1;PMS_P2;Temp;Humidity;BMP_temperature;BMP_pressure;BME280_temperature;BME280_humidity;BME280_pressure;Samples;Min_cycle;Max_cycle;Signal;HPM_P1;HPM_P2
2021/10/16 06:59:36;;;;;;;19.67;11.32;;;15.50;66.90;;;;;;5167323;27;45389;-36
2021/10/16 07:02:02;;;;;;;17.80;11.73;;;15.60;66.60;;;;;;5139359;27;45439;-37
2021/10/16 07:04:28;;;;;;;19.35;11.95;;;15.80;66.10;;;;;;5121630;27;45258;-39
2021/10/16 07:06:54;;;;;;;16.63;10.23;;;16.00;65.60;;;;;;5120804;27;45485;-27
2021/10/16 07:09:20;;;;;;;17.38;11.77;;;16.30;65.10;;;;;;5101720;27;47689;-31
2021/10/16 07:11:46;;;;;;;14.52;10.43;;;16.50;64.70;;;;;;5139004;27;45222;-31
2021/10/16 07:14:12;;;;;;;18.23;10.40;;;16.60;64.50;;;;;;5139250;27;45328;-30
2021/10/16 07:16:38;;;;;;;16.95;10.07;;;16.70;64.30;;;;;;5121851;27;45466;-32
2021/10/16 07:19:04;;;;;;;15.10;11.20;;;16.80;64.20;;;;;;5138803;27;47379;-31
2021/10/16 07:21:30;;;;;;;17.80;11.13;;;16.90;64.00;;;;;;5139079;27;45338;-31
2021/10/16 07:23:56;;;;;;;18.65;11.30;;;17.00;63.90;;;;;;5121611;27;45411;-31
2021/10/16 07:26:23;;;;;;;15.93;10.55;;;17.10;63.80;;;;;;5157730;27;45213;-31
2021/10/16 07:28:50;;;;;;;13.60;9.88;;;17.20;63.80;;;;;;5104168;27;47621;-30
2021/10/16 07:31:16;;;;;;;18.95;11.18;;;17.20;63.70;;;;;;5121772;27;45249;-32
2021/10/16 07:33:42;;;;;;;15.25;10.93;;;17.20;63.50;;;;;;5104630;27;45484;-31
2021/10/16 07:36:08;;;;;;;17.75;11.60;;;17.30;63.50;;;;;;5138949;27;45403;-35
2021/10/16 07:38:34;;;;;;;21.13;11.95;;;17.40;63.40;;;;;;5104275;27;47950;-34
2021/10/16 07:41:00;;;;;;;16.35;11.95;;;17.40;63.30;;;;;;5121439;27;45768;-33
2021/10/16 07:43:26;;;;;;;19.50;11.93;;;17.40;63.20;;;;;;5121568;27;45416;-33
2021/10/16 07:45:52;;;;;;;17.20;12.02;;;17.40;63.20;;;;;;5121536;27;45527;-33
2021/10/16 07:48:18;;;;;;;18.27;11.63;;;17.40;63.20;;;;;;5138485;27;46667;-34
2021/10/16 07:50:44;;;;;;;18.33;11.90;;;17.40;63.20;;;;;;5138701;27;45272;-33
2021/10/16 07:53:10;;;;;;;18.88;11.80;;;17.40;63.20;;;;;;5138622;27;45293;-34
2021/10/16 07:55:36;;;;;;;23.88;12.93;;;17.40;63.20;;;;;;5121318;27;45179;-33
2021/10/16 07:58:02;;;;;;;16.75;11.43;;;17.50;63.80;;;;;;5156657;27;45388;-33
2021/10/16 08:00:28;;;;;;;18.55;11.93;;;17.50;63.30;;;;;;5103995;27;45383;-33
2021/10/16 08:02:54;;;;;;;18.35;12.05;;;17.50;63.20;;;;;;5157112;27;45321;-32
2021/10/16 08:05:20;;;;;;;18.17;12.13;;;17.60;63.20;;;;;;5138446;27;45557;-35
2021/10/16 08:07:46;;;;;;;16.00;11.25;;;17.60;63.20;;;;;;5138154;27;45321;-35
2021/10/16 08:10:12;;;;;;;19.88;11.85;;;17.70;63.10;;;;;;5147425;27;45323;-35
2021/10/16 08:12:38;;;;;;;16.85;12.55;;;17.70;63.00;;;;;;5124659;27;45377;-35
2021/10/16 08:15:05;;;;;;;17.30;11.32;;;17.80;62.90;;;;;;5124568;27;45615;-35
2021/10/16 08:17:31;;;;;;;15.73;11.60;;;17.80;62.80;;;;;;5106956;27;48246;-35
2021/10/16 08:19:57;;;;;;;18.98;11.73;;;17.80;62.80;;;;;;5107050;27;45294;-37
2021/10/16 08:22:24;;;;;;;17.08;10.70;;;17.80;62.70;;;;;;5104548;27;45386;-37
2021/10/16 08:24:50;;;;;;;17.33;10.38;;;17.80;62.60;;;;;;5131242;27;45269;-37
2021/10/16 08:27:16;;;;;;;24.65;15.35;;;17.90;62.60;;;;;;5086189;27;45773;-37
2021/10/16 08:29:42;;;;;;;20.77;14.02;;;17.90;62.50;;;;;;5103153;27;45404;-37
2021/10/16 08:32:08;;;;;;;18.63;13.10;;;17.90;62.40;;;;;;5086534;27;45297;-38
2021/10/16 08:34:34;;;;;;;24.70;14.40;;;18.00;62.40;;;;;;5086511;27;45477;-37
2021/10/16 08:37:00;;;;;;;19.00;12.45;;;18.00;62.30;;;;;;5103053;27;45304;-37
2021/10/16 08:39:27;;;;;;;22.33;15.68;;;17.90;62.30;;;;;;5086072;27;45291;-38
2021/10/16 08:41:52;;;;;;;25.48;15.55;;;18.00;62.30;;;;;;5086397;27;45326;-37
2021/10/16 08:44:18;;;;;;;21.30;14.30;;;18.00;62.30;;;;;;5103399;27;45646;-36
2021/10/16 08:46:44;;;;;;;19.08;13.60;;;17.90;62.30;;;;;;5069110;27;45344;-31
2021/10/16 08:49:14;;;;;;;23.77;13.52;;;17.90;62.30;;;;;;5103144;27;45590;-37
2021/10/16 08:51:41;;;;;;;18.67;11.88;;;17.90;62.50;;;;;;5086368;27;45357;-36
2021/10/16 08:54:07;;;;;;;22.45;13.73;;;17.90;62.60;;;;;;5085935;27;45603;-36
2021/10/16 08:56:33;;;;;;;20.40;12.27;;;18.00;62.80;;;;;;5068510;27;45825;-31
2021/10/16 08:58:59;;;;;;;18.38;12.45;;;18.10;62.90;;;;;;5038550;27;45758;-34
2021/10/16 09:01:25;;;;;;;17.00;11.35;;;18.10;62.90;;;;;;5085442;27;45389;-37
2021/10/16 09:03:50;;;;;;;15.57;11.23;;;18.20;62.90;;;;;;5085716;27;45310;-36
2021/10/16 09:06:27;;;;;;;17.27;12.18;;;18.30;63.20;;;;;;5102430;27;45356;-35
2021/10/16 09:08:56;;;;;;;16.25;10.55;;;18.40;63.00;;;;;;5085888;27;45224;-37
2021/10/16 09:11:27;;;;;;;14.38;10.00;;;18.50;62.80;;;;;;5085898;27;45332;-38
2021/10/16 09:14:11;;;;;;;16.00;10.00;;;18.50;62.80;;;;;;5086079;27;45228;-38
2021/10/16 09:16:41;;;;;;;14.73;10.43;;;18.60;62.80;;;;;;5102299;27;47189;-37
2021/10/16 09:19:19;;;;;;;17.50;10.93;;;18.60;62.80;;;;;;5085529;27;45277;-36
2021/10/16 09:22:01;;;;;;;18.40;10.52;;;18.70;62.80;;;;;;5119961;27;45404;-37
2021/10/16 09:24:28;;;;;;;16.10;10.82;;;18.70;62.60;;;;;;5102343;27;45412;-37
2021/10/16 09:26:57;;;;;;;16.25;10.38;;;18.80;62.70;;;;;;5085301;27;46816;-37
2021/10/16 09:29:23;;;;;;;15.55;9.95;;;18.80;62.60;;;;;;5102384;27;45419;-35
2021/10/16 09:31:52;;;;;;;14.85;9.90;;;18.90;62.70;;;;;;5084891;27;45373;-34
2021/10/16 09:34:24;;;;;;;14.90;10.27;;;18.90;62.70;;;;;;5085314;27;45421;-34
2021/10/16 09:36:51;;;;;;;12.98;9.63;;;18.90;62.70;;;;;;5101999;27;47242;-34
2021/10/16 09:39:17;;;;;;;18.50;10.35;;;19.00;62.70;;;;;;5120764;27;45328;-33
2021/10/16 09:41:43;;;;;;;13.68;9.55;;;19.00;63.30;;;;;;5102786;27;45421;-33
2021/10/16 09:44:30;;;;;;;14.82;10.15;;;19.10;62.80;;;;;;5085234;27;45721;-32
2021/10/16 09:47:02;;;;;;;13.05;9.77;;;19.00;62.80;;;;;;5119361;27;45803;-34
2021/10/16 09:49:29;;;;;;;14.98;10.20;;;19.10;62.80;;;;;;5101909;27;45376;-34
2021/10/16 09:51:55;;;;;;;16.83;9.23;;;19.00;62.80;;;;;;5102221;27;45371;-34
2021/10/16 09:54:21;;;;;;;17.55;10.68;;;19.10;62.80;;;;;;5084856;27;45524;-34
2021/10/16 09:56:47;;;;;;;13.55;9.82;;;19.10;62.90;;;;;;5120256;27;45373;-34
2021/10/16 09:59:17;;;;;;;15.50;8.85;;;19.10;63.00;;;;;;5080962;27;45368;-35
2021/10/16 10:01:42;;;;;;;13.10;10.10;;;19.20;62.80;;;;;;5098754;27;45332;-34
2021/10/16 10:04:09;;;;;;;14.25;9.77;;;19.10;62.80;;;;;;5098657;27;45308;-34
2021/10/16 10:06:35;;;;;;;15.30;10.50;;;19.20;63.30;;;;;;5098235;27;47275;-34
2021/10/16 10:09:03;;;;;;;17.35;11.15;;;19.20;62.70;;;;;;5081328;27;45394;-34
2021/10/16 10:11:29;;;;;;;14.82;9.57;;;19.20;62.60;;;;;;5099718;27;45193;-34
2021/10/16 10:13:55;;;;;;;13.45;9.77;;;19.10;62.70;;;;;;5099681;27;45140;-34
2021/10/16 10:16:20;;;;;;;14.18;9.73;;;19.10;62.70;;;;;;5098146;27;46105;-34
2021/10/16 10:21:34;;;;;;;14.20;9.80;;;19.00;62.80;;;;;;5098418;27;45259;-35
2021/10/16 10:24:01;;;;;;;14.85;9.85;;;19.00;62.90;;;;;;5098503;27;45377;-34
2021/10/16 10:26:31;;;;;;;14.43;9.55;;;18.90;62.90;;;;;;5081229;27;48399;-34
2021/10/16 10:28:59;;;;;;;11.23;8.82;;;18.90;63.10;;;;;;5098220;27;45241;-34
2021/10/16 10:31:53;;;;;;;15.23;9.70;;;18.80;63.20;;;;;;5081310;27;45393;-34
2021/10/16 10:34:45;;;;;;;16.27;10.05;;;18.80;63.30;;;;;;5099589;27;45294;-34
2021/10/16 10:37:12;;;;;;;16.48;11.55;;;18.80;63.30;;;;;;5099272;27;45199;-35
2021/10/16 10:39:50;;;;;;;13.90;8.93;;;18.70;63.30;;;;;;5098091;27;45405;-34
2021/10/16 10:42:39;;;;;;;14.38;9.32;;;18.70;63.40;;;;;;5099684;27;45366;-32
2021/10/16 10:45:05;;;;;;;12.13;9.00;;;18.80;63.40;;;;;;5099491;27;45238;-32
2021/10/16 10:47:33;;;;;;;15.02;8.93;;;18.80;63.30;;;;;;5097869;27;46068;-32
2021/10/16 10:50:08;;;;;;;14.93;8.43;;;18.80;63.30;;;;;;5098035;27;45264;-31
2021/10/16 10:52:57;;;;;;;11.55;8.10;;;18.80;63.30;;;;;;5098909;27;45282;-32
2021/10/16 10:55:23;;;;;;;11.63;8.57;;;18.90;63.30;;;;;;5097959;27;45271;-30
2021/10/16 10:57:57;;;;;;;11.40;7.88;;;18.90;63.30;;;;;;5097512;27;46696;-32
2021/10/16 11:00:39;;;;;;;12.63;8.85;;;18.90;63.30;;;;;;5097502;27;45237;-32
2021/10/16 11:03:44;;;;;;;11.15;7.97;;;18.90;63.20;;;;;;5097754;27;45309;-32
2021/10/16 11:06:17;;;;;;;11.63;8.30;;;18.90;63.20;;;;;;5097822;27;45508;-32
2021/10/16 11:08:45;;;;;;;13.98;8.05;;;18.90;63.10;;;;;;5097472;27;45248;-32
2021/10/16 11:11:10;;;;;;;10.55;8.00;;;18.90;63.10;;;;;;5097664;27;45529;-29
2021/10/16 11:13:36;;;;;;;9.88;6.72;;;19.00;63.10;;;;;;5097740;27;45310;-30
2021/10/16 11:16:04;;;;;;;9.25;6.55;;;19.00;63.10;;;;;;5097740;27;45239;-28
2021/10/16 11:18:30;;;;;;;10.05;7.45;;;19.00;63.10;;;;;;5097505;27;45336;-29
2021/10/16 11:21:04;;;;;;;9.02;6.93;;;19.00;63.10;;;;;;5097618;27;45351;-28
2021/10/16 11:23:29;;;;;;;10.45;7.22;;;19.00;63.10;;;;;;5097692;27;45192;-31
2021/10/16 11:25:57;;;;;;;8.98;7.03;;;19.00;63.10;;;;;;5097689;27;45373;-32
2021/10/16 11:28:23;;;;;;;9.35;6.60;;;19.00;63.00;;;;;;5097561;27;47061;-32
2021/10/16 11:30:49;;;;;;;9.43;7.30;;;19.00;63.00;;;;;;5080532;27;45308;-32
2021/10/16 11:33:17;;;;;;;11.85;7.55;;;19.00;63.00;;;;;;5097426;27;45333;-32
2021/10/16 11:35:44;;;;;;;12.50;8.00;;;19.00;63.60;;;;;;5080555;27;45520;-32
2021/10/16 11:38:11;;;;;;;9.05;6.72;;;19.00;63.10;;;;;;5097179;27;45354;-32
2021/10/16 11:40:37;;;;;;;11.20;7.65;;;19.00;63.20;;;;;;5097321;27;45337;-32
2021/10/16 11:43:09;;;;;;;9.02;6.90;;;19.00;63.20;;;;;;5098361;27;45439;-32
2021/10/16 11:45:38;;;;;;;10.50;6.80;;;19.00;63.20;;;;;;5099632;27;45501;-37
2021/10/16 11:48:06;;;;;;;11.30;7.88;;;19.00;63.30;;;;;;5100613;27;46430;-37
2021/10/16 11:50:41;;;;;;;14.35;7.55;;;19.00;63.40;;;;;;5100730;27;45388;-38
2021/10/16 11:53:28;;;;;;;15.02;7.80;;;19.10;63.40;;;;;;5101879;27;45179;-39
2021/10/16 11:56:10;;;;;;;11.80;7.88;;;19.10;63.50;;;;;;5100537;27;45476;-39
2021/10/16 11:58:37;;;;;;;14.27;8.48;;;19.10;63.40;;;;;;5100185;27;45360;-37
2021/10/16 12:01:04;;;;;;;13.75;7.85;;;19.10;63.30;;;;;;5101792;27;45214;-38
2021/10/16 12:03:38;;;;;;;8.90;6.95;;;19.10;63.50;;;;;;5100658;27;45259;-38
2021/10/16 12:06:14;;;;;;;11.20;7.88;;;19.20;63.60;;;;;;5084504;27;45256;-38
2021/10/16 12:08:48;;;;;;;14.43;7.97;;;19.20;63.50;;;;;;5099791;27;47700;-40
2021/10/16 12:11:21;;;;;;;14.60;7.85;;;19.20;63.30;;;;;;5100260;27;45253;-41
2021/10/16 12:14:09;;;;;;;13.07;8.20;;;19.20;63.50;;;;;;5100108;27;45241;-39
2021/10/16 12:16:40;;;;;;;11.85;9.10;;;19.30;63.50;;;;;;5083272;27;45302;-39
2021/10/16 12:19:12;;;;;;;14.02;9.70;;;19.30;63.20;;;;;;5099613;27;47174;-40
2021/10/16 12:21:44;;;;;;;16.05;10.10;;;19.30;63.30;;;;;;5100037;27;45442;-46
2021/10/16 12:24:16;;;;;;;13.77;9.63;;;19.30;63.00;;;;;;5082839;27;45447;-46
2021/10/16 12:26:45;;;;;;;12.63;9.18;;;19.30;62.90;;;;;;5100306;27;45355;-51
2021/10/16 12:29:25;;;;;;;15.35;10.30;;;19.40;63.00;;;;;;5100067;27;45188;-45
2021/10/16 12:31:52;;;;;;;13.70;9.40;;;19.30;63.00;;;;;;5100287;27;45365;-46
2021/10/16 12:34:20;;;;;;;13.52;9.32;;;19.40;63.00;;;;;;5100074;27;45300;-44
2021/10/16 12:36:51;;;;;;;12.23;9.73;;;19.40;63.10;;;;;;5100340;27;45236;-45
2021/10/16 12:39:39;;;;;;;11.45;8.95;;;19.40;63.20;;;;;;5099475;27;46598;-47
2021/10/16 12:42:26;;;;;;;15.90;9.15;;;19.40;63.30;;;;;;5082422;27;45247;-46
2021/10/16 12:45:12;;;;;;;14.57;8.73;;;19.50;63.50;;;;;;5100045;27;45252;-45
2021/10/16 12:47:38;;;;;;;15.65;9.25;;;19.50;63.50;;;;;;5100856;27;45553;-47
2021/10/16 12:50:05;;;;;;;10.90;9.23;;;19.60;63.50;;;;;;5082418;27;47152;-45
2021/10/16 12:52:47;;;;;;;13.30;9.65;;;19.60;63.40;;;;;;5099751;27;45314;-45
2021/10/16 12:55:25;;;;;;;14.85;9.38;;;19.60;63.50;;;;;;5099422;27;45313;-46
2021/10/16 12:58:10;;;;;;;14.25;9.25;;;19.60;63.40;;;;;;5099246;27;45337;-45
2021/10/16 13:00:42;;;;;;;12.82;9.30;;;19.60;63.50;;;;;;5100908;27;45381;-46
2021/10/16 13:03:10;;;;;;;12.10;8.85;;;19.70;63.40;;;;;;5099736;27;45326;-50
2021/10/16 13:05:36;;;;;;;12.65;8.75;;;19.70;63.40;;;;;;5099654;27;45365;-47
2021/10/16 13:08:04;;;;;;;11.70;9.32;;;19.70;63.40;;;;;;5099489;27;45460;-51
2021/10/16 13:10:30;;;;;;;15.23;10.13;;;19.70;63.40;;;;;;5099189;27;45297;-50
2021/10/16 13:12:56;;;;;;;14.13;9.27;;;19.70;63.40;;;;;;5082454;27;45175;-50
2021/10/16 13:15:22;;;;;;;10.88;9.05;;;19.70;63.40;;;;;;5099311;27;45239;-45
2021/10/16 13:17:48;;;;;;;14.23;9.20;;;19.80;63.30;;;;;;5099309;27;45263;-51
2021/10/16 13:20:14;;;;;;;13.07;8.68;;;19.80;63.30;;;;;;5099122;27;46272;-50
2021/10/16 13:22:40;;;;;;;11.48;9.38;;;19.80;63.20;;;;;;5099130;27;45379;-39
2021/10/16 13:25:07;;;;;;;12.85;9.50;;;19.80;63.10;;;;;;5099317;27;45306;-37
2021/10/16 13:27:33;;;;;;;13.20;10.15;;;19.90;63.30;;;;;;5099180;27;45436;-37
2021/10/16 13:29:59;;;;;;;13.07;9.10;;;19.90;63.30;;;;;;5082091;27;48388;-37
2021/10/16 13:32:27;;;;;;;12.02;9.20;;;19.90;63.30;;;;;;5098987;27;45436;-37
2021/10/16 13:34:53;;;;;;;14.02;8.82;;;19.90;63.30;;;;;;5081886;27;45360;-38
2021/10/16 13:37:19;;;;;;;14.95;9.80;;;20.00;63.40;;;;;;5098992;27;45446;-38
2021/10/16 13:39:44;;;;;;;14.85;9.82;;;20.00;63.40;;;;;;5098596;27;48041;-37
2021/10/16 13:42:11;;;;;;;12.60;9.15;;;20.00;63.30;;;;;;5081737;27;45406;-39
2021/10/16 13:44:40;;;;;;;13.50;9.75;;;20.00;63.90;;;;;;5100081;27;45309;-38
2021/10/16 13:47:06;;;;;;;13.00;9.32;;;20.00;63.40;;;;;;5098845;27;45620;-38
2021/10/16 13:49:32;;;;;;;10.75;9.20;;;20.10;63.30;;;;;;5098661;27;45437;-39
2021/10/16 13:51:58;;;;;;;13.98;9.73;;;20.10;63.20;;;;;;5098634;27;45357;-38
2021/10/16 13:54:24;;;;;;;11.13;9.13;;;20.10;63.30;;;;;;5098666;27;45459;-39
2021/10/16 13:56:50;;;;;;;11.93;8.93;;;20.10;63.20;;;;;;5098667;27;45340;-37
2021/10/16 13:59:17;;;;;;;15.40;8.90;;;20.10;63.20;;;;;;5097863;27;47308;-38
2021/10/16 14:01:43;;;;;;;13.40;8.77;;;20.10;63.10;;;;;;5098789;27;45336;-38
2021/10/16 14:04:09;;;;;;;11.77;8.80;;;20.10;63.20;;;;;;5098550;27;45189;-38
2021/10/16 14:06:35;;;;;;;14.95;9.40;;;20.10;63.20;;;;;;5081603;27;45411;-38
2021/10/16 14:09:02;;;;;;;12.07;8.18;;;20.20;63.10;;;;;;5080932;27;47556;-37
2021/10/16 14:11:28;;;;;;;16.30;9.13;;;20.20;63.10;;;;;;5081374;27;45334;-35
2021/10/16 14:13:54;;;;;;;13.35;8.82;;;20.20;63.00;;;;;;5098610;27;45251;-38
2021/10/16 14:16:19;;;;;;;13.25;9.00;;;20.20;63.00;;;;;;5098473;27;45288;-38
2021/10/16 14:18:46;;;;;;;11.27;8.55;;;20.20;62.80;;;;;;5098222;27;47342;-41
2021/10/16 14:21:11;;;;;;;12.10;8.98;;;20.20;62.80;;;;;;5081242;27;45342;-42
2021/10/16 14:23:38;;;;;;;11.07;8.98;;;20.20;62.90;;;;;;5099694;27;45272;-42
2021/10/16 14:26:04;;;;;;;11.77;8.55;;;20.30;62.80;;;;;;5098223;27;45221;-49
2021/10/16 14:28:33;;;;;;;11.75;8.80;;;20.30;62.60;;;;;;5098029;27;46898;-52
2021/10/16 14:30:59;;;;;;;10.90;8.50;;;20.30;62.60;;;;;;5097201;27;45309;-55
2021/10/16 14:33:25;;;;;;;12.98;8.98;;;20.30;62.50;;;;;;5099448;27;45300;-56
2021/10/16 14:35:51;;;;;;;13.48;8.68;;;20.30;62.40;;;;;;5110534;27;45384;-57
2021/10/16 14:38:17;;;;;;;11.25;8.35;;;20.20;62.50;;;;;;5116965;27;45386;-53
2021/10/16 14:40:43;;;;;;;12.40;8.65;;;20.20;62.30;;;;;;5118753;27;45284;-53
2021/10/16 14:43:09;;;;;;;11.85;8.90;;;20.20;62.30;;;;;;5084642;27;45323;-55
2021/10/16 14:45:35;;;;;;;12.65;9.45;;;20.20;62.40;;;;;;5101486;27;45322;-50
2021/10/16 14:48:01;;;;;;;10.32;7.82;;;20.20;62.40;;;;;;5119799;27;45231;-56
2021/10/16 14:50:27;;;;;;;11.23;8.75;;;20.20;62.40;;;;;;5101456;27;45354;-35
2021/10/16 14:52:53;;;;;;;11.02;8.40;;;20.10;62.40;;;;;;5118602;27;45441;-33
2021/10/16 14:55:19;;;;;;;15.23;8.82;;;20.20;62.70;;;;;;5101162;27;45325;-32
2021/10/16 14:57:45;;;;;;;15.10;10.85;;;20.20;62.60;;;;;;5083736;27;46881;-32
2021/10/16 15:00:11;;;;;;;14.80;9.30;;;20.30;62.50;;;;;;5119604;27;45341;-36
2021/10/16 15:02:38;;;;;;;16.90;9.80;;;20.40;62.60;;;;;;5084498;27;45319;-36
